createdAt,value
2023-05-10T00:02:00.095Z,10.88
2023-05-10T00:04:29.000Z,12.13
2023-05-10T00:06:55.927Z,16.52
2023-05-10T00:09:22.596Z,10.23
2023-05-10T00:11:49.217Z,11.07
2023-05-10T00:14:15.936Z,15.90
2023-05-10T00:16:42.612Z,18.10
2023-05-10T00:19:09.321Z,18.83
2023-05-10T00:21:35.952Z,14.20
2023-05-10T00:24:02.584Z,13.02
2023-05-10T00:26:29.379Z,14.88
2023-05-10T00:28:56.063Z,14.68
2023-05-10T00:31:22.788Z,13.60
2023-05-10T00:33:51.482Z,13.32
2023-05-10T00:36:18.124Z,19.17
2023-05-10T00:38:44.799Z,18.65
2023-05-10T00:41:11.454Z,13.98
2023-05-10T00:43:38.120Z,16.35
2023-05-10T00:46:05.730Z,20.20
2023-05-10T00:48:32.989Z,15.73
2023-05-10T00:50:59.688Z,19.65
2023-05-10T00:53:26.596Z,11.88
2023-05-10T00:55:53.363Z,15.55
2023-05-10T00:58:20.088Z,13.85
2023-05-10T01:00:47.607Z,13.68
2023-05-10T01:03:15.439Z,15.10
2023-05-10T01:05:42.677Z,14.93
2023-05-10T01:08:09.877Z,13.90
2023-05-10T01:10:36.733Z,14.13
2023-05-10T01:13:04.219Z,14.52
2023-05-10T01:15:31.813Z,14.15
2023-05-10T01:17:58.519Z,16.67
2023-05-10T01:20:26.262Z,17.67
2023-05-10T01:23:21.002Z,13.65
2023-05-10T01:26:39.999Z,16.90
2023-05-10T01:29:27.901Z,20.48
2023-05-10T01:34:36.787Z,20.58
2023-05-10T01:37:10.599Z,21.10
2023-05-10T01:39:46.134Z,17.52
2023-05-10T01:42:18.064Z,24.55
2023-05-10T01:45:01.577Z,20.65
2023-05-10T01:47:32.163Z,16.65
2023-05-10T01:50:02.679Z,15.50
2023-05-10T01:52:36.384Z,21.08
2023-05-10T01:55:06.424Z,19.40
2023-05-10T01:57:40.706Z,16.25
2023-05-10T02:00:08.809Z,15.90
2023-05-10T02:02:39.074Z,18.35
2023-05-10T02:05:07.390Z,22.00
2023-05-10T02:07:37.826Z,19.05
2023-05-10T02:10:09.058Z,16.70
2023-05-10T02:12:47.512Z,16.60
2023-05-10T02:15:17.882Z,19.08
2023-05-10T02:17:47.151Z,18.13
2023-05-10T02:20:15.056Z,16.42
2023-05-10T02:22:43.017Z,16.30
2023-05-10T02:25:10.213Z,14.35
2023-05-10T02:27:38.033Z,17.85
2023-05-10T02:30:07.650Z,15.85
2023-05-10T02:32:34.900Z,17.20
2023-05-10T02:35:02.976Z,15.10
2023-05-10T02:37:30.279Z,17.63
2023-05-10T02:39:57.969Z,13.90
2023-05-10T02:42:28.913Z,16.23
2023-05-10T02:45:01.738Z,16.27
2023-05-10T02:47:29.688Z,14.82
2023-05-10T02:49:56.542Z,18.20
2023-05-10T02:52:27.508Z,17.73
2023-05-10T02:54:57.201Z,14.85
2023-05-10T02:57:28.697Z,14.82
2023-05-10T02:59:55.694Z,15.55
2023-05-10T03:02:22.772Z,15.75
2023-05-10T03:04:49.622Z,17.75
2023-05-10T03:07:16.843Z,14.40
2023-05-10T03:09:43.509Z,19.85
2023-05-10T03:12:21.037Z,15.73
2023-05-10T03:15:02.953Z,16.25
2023-05-10T03:17:58.469Z,16.08
2023-05-10T03:20:47.461Z,18.65
2023-05-10T03:23:41.641Z,19.40
2023-05-10T03:26:08.856Z,21.33
2023-05-10T03:28:36.476Z,21.50
2023-05-10T03:31:04.778Z,19.75
2023-05-10T03:33:31.524Z,17.35
2023-05-10T03:35:58.165Z,29.98
2023-05-10T03:38:24.862Z,29.52
2023-05-10T03:40:51.542Z,22.88
2023-05-10T03:43:18.227Z,24.38
2023-05-10T03:45:45.127Z,16.25
2023-05-10T03:48:12.322Z,15.82
2023-05-10T03:50:39.072Z,19.85
2023-05-10T03:53:05.823Z,14.20
2023-05-10T03:55:35.538Z,17.92
2023-05-10T03:58:02.169Z,16.40
2023-05-10T04:00:28.798Z,20.60
2023-05-10T04:02:55.508Z,12.65
2023-05-10T04:05:22.173Z,20.10
2023-05-10T04:07:50.395Z,18.50
2023-05-10T04:10:17.860Z,18.52
2023-05-10T04:12:44.801Z,18.85
2023-05-10T04:15:11.676Z,12.65
2023-05-10T04:17:38.725Z,12.88
2023-05-10T04:20:06.225Z,13.70
2023-05-10T04:22:33.333Z,13.52
2023-05-10T04:25:00.126Z,15.18
2023-05-10T04:27:26.814Z,18.98
2023-05-10T04:29:53.496Z,18.45
2023-05-10T04:32:21.524Z,19.17
2023-05-10T04:34:48.411Z,14.40
2023-05-10T04:37:15.074Z,11.77
2023-05-10T04:39:42.408Z,16.73
2023-05-10T04:42:09.668Z,13.93
2023-05-10T04:44:36.631Z,22.92
2023-05-10T04:47:04.010Z,14.63
2023-05-10T04:49:31.119Z,16.40
2023-05-10T04:51:57.801Z,12.70
2023-05-10T04:54:24.718Z,15.00
2023-05-10T04:56:51.340Z,13.63
2023-05-10T04:59:18.290Z,12.60
2023-05-10T05:01:44.943Z,10.43
2023-05-10T05:04:11.621Z,11.82
2023-05-10T05:06:38.301Z,12.82
2023-05-10T05:09:04.981Z,14.32
2023-05-10T05:11:31.626Z,30.73
2023-05-10T05:14:00.178Z,11.43
2023-05-10T05:16:27.487Z,15.20
2023-05-10T05:18:54.395Z,8.77
2023-05-10T05:21:21.432Z,9.88
2023-05-10T05:23:48.168Z,14.52
2023-05-10T05:26:16.054Z,10.00
2023-05-10T05:28:42.935Z,7.88
2023-05-10T05:31:10.246Z,12.55
2023-05-10T05:33:37.339Z,11.95
2023-05-10T05:36:05.542Z,12.98
2023-05-10T05:38:32.732Z,9.38
2023-05-10T05:41:00.470Z,13.18
2023-05-10T05:43:27.376Z,12.43
2023-05-10T05:45:59.064Z,12.25
2023-05-10T05:48:25.995Z,12.52
2023-05-10T05:50:56.535Z,12.32
2023-05-10T05:53:23.485Z,11.63
2023-05-10T05:55:58.795Z,9.23
2023-05-10T05:58:26.219Z,10.45
2023-05-10T06:00:53.684Z,13.10
2023-05-10T06:03:20.706Z,12.55
2023-05-10T06:05:47.705Z,15.55
2023-05-10T06:08:14.391Z,10.77
2023-05-10T06:10:41.029Z,13.23
2023-05-10T06:13:07.765Z,10.15
2023-05-10T06:15:34.515Z,12.82
2023-05-10T06:18:01.516Z,17.85
2023-05-10T06:20:28.278Z,16.02
2023-05-10T06:22:55.129Z,9.63
2023-05-10T06:25:26.086Z,11.38
2023-05-10T06:27:58.021Z,9.63
2023-05-10T06:30:28.587Z,14.40
2023-05-10T06:32:56.017Z,12.95
2023-05-10T06:35:23.004Z,9.57
2023-05-10T06:37:50.188Z,11.07
2023-05-10T06:40:17.227Z,12.80
2023-05-10T06:42:44.345Z,12.40
2023-05-10T06:45:11.723Z,11.20
2023-05-10T06:47:39.247Z,14.65
2023-05-10T06:50:06.751Z,11.93
2023-05-10T06:52:33.740Z,9.80
2023-05-10T06:55:01.314Z,9.18
2023-05-10T06:57:31.689Z,8.27
2023-05-10T07:00:01.868Z,14.85
2023-05-10T07:02:29.115Z,12.35
2023-05-10T07:04:55.978Z,9.75
2023-05-10T07:07:22.786Z,10.35
2023-05-10T07:09:50.955Z,10.52
2023-05-10T07:12:17.799Z,11.23
2023-05-10T07:14:44.526Z,12.52
2023-05-10T07:17:11.290Z,9.38
2023-05-10T07:19:38.129Z,11.95
2023-05-10T07:22:04.860Z,14.00
2023-05-10T07:24:32.356Z,16.05
2023-05-10T07:26:59.140Z,17.40
2023-05-10T07:29:26.205Z,11.93
2023-05-10T07:31:53.014Z,15.43
2023-05-10T07:34:19.839Z,12.48
2023-05-10T07:36:46.539Z,9.85
2023-05-10T07:39:18.597Z,10.02
2023-05-10T07:41:53.038Z,13.27
2023-05-10T07:44:21.527Z,9.30
2023-05-10T07:46:48.748Z,8.68
2023-05-10T07:49:15.571Z,12.82
2023-05-10T07:51:43.369Z,14.90
2023-05-10T07:54:10.088Z,8.23
2023-05-10T07:56:37.197Z,9.20
2023-05-10T07:59:05.322Z,9.52
2023-05-10T08:01:33.744Z,11.98
2023-05-10T08:04:01.093Z,9.48
2023-05-10T08:06:29.658Z,13.93
2023-05-10T08:08:56.795Z,9.43
2023-05-10T08:11:23.890Z,8.93
2023-05-10T08:13:51.468Z,15.93
2023-05-10T08:16:18.574Z,8.73
2023-05-10T08:18:46.805Z,10.30
2023-05-10T08:21:14.879Z,9.90
2023-05-10T08:23:41.898Z,8.35
2023-05-10T08:26:08.540Z,10.25
2023-05-10T08:28:35.201Z,11.65
2023-05-10T08:31:01.893Z,10.57
2023-05-10T08:33:28.647Z,9.43
2023-05-10T08:35:55.396Z,9.40
2023-05-10T08:38:22.175Z,7.15
2023-05-10T08:40:51.820Z,8.10
2023-05-10T08:43:19.333Z,8.18
2023-05-10T08:45:49.225Z,8.20
2023-05-10T08:48:16.638Z,8.60
2023-05-10T08:50:44.123Z,7.97
2023-05-10T08:53:13.782Z,10.23
2023-05-10T08:55:43.085Z,9.43
2023-05-10T08:58:10.808Z,7.70
2023-05-10T09:00:40.816Z,7.63
2023-05-10T09:03:10.227Z,10.35
2023-05-10T09:05:37.987Z,11.18
2023-05-10T09:08:05.084Z,11.32
2023-05-10T09:10:32.409Z,10.63
2023-05-10T09:12:59.628Z,11.88
2023-05-10T09:15:26.961Z,9.35
2023-05-10T09:17:53.951Z,9.93
2023-05-10T09:20:20.783Z,10.05
2023-05-10T09:22:47.486Z,9.45
2023-05-10T09:25:16.092Z,13.45
2023-05-10T09:27:46.501Z,12.30
2023-05-10T09:30:32.049Z,8.32
2023-05-10T09:33:00.155Z,11.55
2023-05-10T09:35:31.272Z,8.50
2023-05-10T09:38:03.400Z,11.82
2023-05-10T09:40:31.125Z,12.02
2023-05-10T09:43:06.992Z,14.30
2023-05-10T09:45:37.712Z,10.30
2023-05-10T09:48:05.959Z,10.10
2023-05-10T09:50:32.721Z,7.57
2023-05-10T09:53:04.602Z,9.80
2023-05-10T09:55:37.221Z,12.10
2023-05-10T09:58:05.720Z,8.32
2023-05-10T10:00:45.179Z,8.50
2023-05-10T10:03:20.062Z,12.75
2023-05-10T10:05:47.936Z,9.43
2023-05-10T10:08:15.101Z,7.70
2023-05-10T10:10:42.587Z,8.30
2023-05-10T10:13:09.486Z,13.52
2023-05-10T10:15:36.681Z,10.02
2023-05-10T10:18:05.282Z,12.93
2023-05-10T10:20:32.467Z,8.55
2023-05-10T10:23:18.012Z,8.35
2023-05-10T10:25:46.214Z,12.38
2023-05-10T10:28:41.856Z,11.13
2023-05-10T10:31:45.085Z,9.63
2023-05-10T10:34:23.400Z,10.18
2023-05-10T10:36:51.729Z,11.73
2023-05-10T10:39:19.564Z,9.13
2023-05-10T10:41:57.305Z,7.38
2023-05-10T10:44:24.893Z,10.85
2023-05-10T10:47:13.236Z,11.27
2023-05-10T10:49:45.600Z,8.63
2023-05-10T10:52:34.765Z,8.77
2023-05-10T10:55:09.377Z,8.15
2023-05-10T10:57:42.112Z,8.20
2023-05-10T11:00:25.676Z,9.25
2023-05-10T11:03:05.358Z,9.38
2023-05-10T11:05:48.490Z,10.10
2023-05-10T11:08:26.963Z,10.52
2023-05-10T11:10:59.732Z,11.93
2023-05-10T11:13:42.672Z,9.10
2023-05-10T11:16:27.968Z,8.80
2023-05-10T11:18:58.974Z,11.82
2023-05-10T11:21:25.787Z,9.05
2023-05-10T11:23:57.596Z,7.80
2023-05-10T11:26:35.037Z,10.50
2023-05-10T11:29:02.981Z,8.52
2023-05-10T11:31:30.398Z,10.55
2023-05-10T11:33:59.525Z,12.00
2023-05-10T11:36:28.396Z,11.52
2023-05-10T11:38:56.473Z,8.63
2023-05-10T11:41:24.022Z,7.22
2023-05-10T11:43:52.297Z,9.35
2023-05-10T11:46:21.575Z,8.73
2023-05-10T11:48:51.891Z,11.65
2023-05-10T11:51:26.244Z,9.30
2023-05-10T11:53:58.130Z,8.55
2023-05-10T11:56:27.269Z,8.98
2023-05-10T12:01:22.093Z,10.80
2023-05-10T12:03:49.419Z,11.48
2023-05-10T12:06:17.111Z,10.23
2023-05-10T12:08:51.573Z,9.00
2023-05-10T12:11:18.781Z,8.55
2023-05-10T12:13:48.836Z,10.73
2023-05-10T12:16:22.869Z,8.68
2023-05-10T12:18:52.102Z,10.85
2023-05-10T12:21:21.111Z,8.20
2023-05-10T12:23:49.339Z,7.78
2023-05-10T12:26:16.128Z,9.77
2023-05-10T12:28:42.793Z,9.05
2023-05-10T12:31:11.078Z,10.15
2023-05-10T12:33:44.886Z,8.13
2023-05-10T12:36:14.538Z,10.05
2023-05-10T12:38:44.266Z,9.23
2023-05-10T12:41:17.296Z,9.10
2023-05-10T12:43:44.138Z,10.48
2023-05-10T12:46:17.723Z,9.52
2023-05-10T12:48:45.575Z,9.43
2023-05-10T12:51:18.236Z,9.95
2023-05-10T12:53:49.264Z,8.07
2023-05-10T12:56:16.337Z,9.52
2023-05-10T12:58:43.037Z,11.00
2023-05-10T13:01:09.809Z,10.20
2023-05-10T13:03:36.548Z,11.18
2023-05-10T13:06:03.212Z,11.50
2023-05-10T13:08:34.374Z,10.02
2023-05-10T13:11:02.225Z,14.60
2023-05-10T13:13:28.972Z,9.57
2023-05-10T13:15:55.744Z,8.90
2023-05-10T13:18:22.659Z,10.20
2023-05-10T13:20:50.708Z,10.95
2023-05-10T13:23:17.394Z,11.52
2023-05-10T13:25:44.063Z,8.63
2023-05-10T13:28:10.808Z,10.88
2023-05-10T13:30:37.476Z,13.18
2023-05-10T13:33:04.363Z,7.90
2023-05-10T13:35:31.202Z,10.18
2023-05-10T13:37:58.784Z,11.13
2023-05-10T13:40:25.643Z,13.38
2023-05-10T13:42:52.397Z,9.75
2023-05-10T13:45:19.289Z,9.23
2023-05-10T13:47:46.174Z,10.73
2023-05-10T13:50:12.871Z,8.43
2023-05-10T13:52:39.538Z,8.90
2023-05-10T13:55:06.477Z,9.60
2023-05-10T13:57:35.503Z,8.73
2023-05-10T14:00:02.623Z,7.20
2023-05-10T14:02:29.370Z,10.18
2023-05-10T14:04:56.152Z,8.30
2023-05-10T14:07:22.969Z,9.55
2023-05-10T14:09:49.766Z,8.75
2023-05-10T14:12:16.501Z,9.20
2023-05-10T14:14:43.216Z,9.32
2023-05-10T14:17:12.246Z,11.93
2023-05-10T14:19:40.069Z,10.02
2023-05-10T14:22:07.105Z,12.80
2023-05-10T14:24:33.775Z,9.00
2023-05-10T14:27:01.209Z,10.35
2023-05-10T14:29:28.073Z,10.45
2023-05-10T14:31:57.801Z,10.88
2023-05-10T14:34:24.478Z,9.98
2023-05-10T14:36:51.446Z,14.38
2023-05-10T14:39:18.143Z,10.30
2023-05-10T14:41:45.729Z,8.55
2023-05-10T14:44:12.462Z,11.70
2023-05-10T14:46:39.609Z,7.20
2023-05-10T14:49:06.319Z,9.57
2023-05-10T14:51:33.069Z,9.40
2023-05-10T14:53:59.943Z,10.30
2023-05-10T14:56:27.172Z,16.05
2023-05-10T14:58:53.943Z,11.75
2023-05-10T15:01:21.104Z,8.73
2023-05-10T15:03:48.572Z,13.75
2023-05-10T15:06:19.275Z,12.80
2023-05-10T15:08:45.931Z,16.50
2023-05-10T15:11:12.608Z,13.82
2023-05-10T15:13:39.266Z,7.70
2023-05-10T15:16:06.051Z,8.70
2023-05-10T15:18:32.771Z,8.20
2023-05-10T15:20:59.493Z,10.23
2023-05-10T15:23:26.151Z,10.43
2023-05-10T15:25:56.550Z,8.70
2023-05-10T15:28:23.544Z,11.25
2023-05-10T15:30:50.357Z,9.50
2023-05-10T15:33:17.076Z,12.95
2023-05-10T15:35:43.772Z,10.18
2023-05-10T15:38:11.057Z,9.93
2023-05-10T15:40:37.740Z,12.63
2023-05-10T15:43:04.975Z,10.65
2023-05-10T15:45:31.868Z,9.15
2023-05-10T15:48:00.202Z,12.82
2023-05-10T15:50:27.541Z,11.18
2023-05-10T15:52:54.340Z,11.82
2023-05-10T15:55:21.024Z,12.75
2023-05-10T15:57:48.797Z,8.40
2023-05-10T16:00:16.034Z,15.00
2023-05-10T16:02:42.832Z,9.27
2023-05-10T16:05:10.010Z,15.38
2023-05-10T16:07:36.923Z,9.68
2023-05-10T16:10:06.540Z,8.35
2023-05-10T16:12:33.399Z,9.63
2023-05-10T16:15:00.066Z,9.60
2023-05-10T16:17:27.329Z,12.52
2023-05-10T16:19:54.270Z,12.18
2023-05-10T16:22:22.691Z,17.10
2023-05-10T16:24:53.680Z,10.85
2023-05-10T16:27:20.397Z,10.57
2023-05-10T16:29:47.891Z,12.90
2023-05-10T16:32:14.714Z,10.85
2023-05-10T16:34:42.803Z,9.20
2023-05-10T16:37:09.934Z,9.20
2023-05-10T16:39:36.635Z,11.63
2023-05-10T16:42:03.360Z,13.65
2023-05-10T16:44:30.066Z,10.95
2023-05-10T16:46:56.734Z,12.73
2023-05-10T16:49:25.838Z,11.52
2023-05-10T16:51:52.960Z,12.90
2023-05-10T16:54:20.831Z,11.63
2023-05-10T16:56:47.790Z,10.38
2023-05-10T16:59:14.435Z,10.63
2023-05-10T17:01:41.160Z,10.40
2023-05-10T17:04:08.210Z,12.48
2023-05-10T17:06:35.964Z,14.30
2023-05-10T17:09:04.085Z,11.98
2023-05-10T17:11:30.989Z,13.18
2023-05-10T17:13:59.143Z,13.20
2023-05-10T17:16:25.963Z,13.10
2023-05-10T17:18:52.906Z,11.88
2023-05-10T17:21:19.625Z,13.75
2023-05-10T17:23:46.271Z,13.65
2023-05-10T17:26:13.034Z,12.55
2023-05-10T17:28:39.677Z,10.20
2023-05-10T17:31:06.413Z,13.23
2023-05-10T17:33:33.105Z,13.07
2023-05-10T17:35:59.808Z,11.18
2023-05-10T17:38:26.505Z,9.73
2023-05-10T17:40:53.147Z,10.85
2023-05-10T17:43:20.797Z,9.50
2023-05-10T17:45:50.476Z,12.27
2023-05-10T17:48:17.390Z,13.25
2023-05-10T17:50:44.608Z,12.70
2023-05-10T17:53:11.249Z,9.15
2023-05-10T17:55:42.077Z,11.27
2023-05-10T17:58:10.835Z,13.68
2023-05-10T18:00:37.704Z,10.90
2023-05-10T18:03:05.578Z,11.38
2023-05-10T18:05:35.963Z,13.43
2023-05-10T18:08:02.618Z,10.88
2023-05-10T18:10:29.370Z,15.07
2023-05-10T18:12:56.001Z,12.77
2023-05-10T18:15:23.105Z,9.88
2023-05-10T18:17:50.118Z,13.10
2023-05-10T18:20:16.960Z,10.38
2023-05-10T18:22:44.064Z,16.45
2023-05-10T18:25:10.732Z,10.23
2023-05-10T18:27:37.412Z,13.68
2023-05-10T18:30:04.999Z,9.93
2023-05-10T18:32:31.784Z,16.48
2023-05-10T18:34:58.480Z,12.85
2023-05-10T18:37:25.196Z,10.00
2023-05-10T18:39:51.900Z,17.77
2023-05-10T18:42:18.795Z,11.18
2023-05-10T18:44:45.436Z,12.63
2023-05-10T18:47:12.115Z,10.07
2023-05-10T18:49:39.691Z,12.98
2023-05-10T18:52:06.378Z,11.88
2023-05-10T18:54:33.101Z,10.68
2023-05-10T18:56:59.797Z,10.23
2023-05-10T18:59:27.897Z,13.95
2023-05-10T19:01:56.499Z,10.93
2023-05-10T19:04:24.219Z,12.63
2023-05-10T19:06:50.984Z,12.43
2023-05-10T19:09:20.205Z,18.60
2023-05-10T19:14:13.456Z,11.45
2023-05-10T19:16:42.309Z,13.00
2023-05-10T19:19:10.261Z,11.57
2023-05-10T19:21:36.957Z,17.48
2023-05-10T19:24:03.786Z,14.68
2023-05-10T19:26:30.497Z,12.57
2023-05-10T19:28:57.785Z,11.25
2023-05-10T19:31:24.770Z,10.90
2023-05-10T19:33:51.483Z,14.85
2023-05-10T19:36:18.207Z,13.48
2023-05-10T19:38:44.960Z,12.60
2023-05-10T19:41:11.771Z,12.93
2023-05-10T19:43:39.674Z,15.68
2023-05-10T19:46:06.559Z,14.57
2023-05-10T19:48:33.272Z,15.95
2023-05-10T19:51:03.540Z,13.93
2023-05-10T19:53:30.723Z,11.88
2023-05-10T19:56:03.512Z,12.48
2023-05-10T19:58:30.185Z,15.63
2023-05-10T20:00:56.898Z,16.20
2023-05-10T20:03:23.595Z,15.18
2023-05-10T20:05:50.378Z,13.80
2023-05-10T20:08:17.114Z,15.05
2023-05-10T20:10:43.877Z,13.07
2023-05-10T20:13:10.506Z,15.50
2023-05-10T20:15:37.246Z,15.13
2023-05-10T20:18:04.093Z,12.60
2023-05-10T20:20:31.035Z,10.23
2023-05-10T20:22:57.818Z,13.75
2023-05-10T20:25:24.583Z,10.80
2023-05-10T20:27:51.341Z,11.82
2023-05-10T20:30:18.362Z,18.48
2023-05-10T20:32:45.239Z,14.07
2023-05-10T20:35:31.348Z,15.93
2023-05-10T20:37:59.982Z,16.00
2023-05-10T20:40:26.629Z,18.98
2023-05-10T20:42:54.155Z,13.68
2023-05-10T20:45:20.841Z,10.63
2023-05-10T20:47:47.511Z,10.63
2023-05-10T20:50:14.303Z,11.15
2023-05-10T20:52:41.009Z,12.98
2023-05-10T20:55:08.108Z,16.95
2023-05-10T20:57:34.915Z,18.05
2023-05-10T21:00:02.966Z,18.77
2023-05-10T21:02:29.762Z,16.55
2023-05-10T21:04:57.961Z,13.95
2023-05-10T21:07:25.066Z,17.42
2023-05-10T21:09:51.727Z,14.45
2023-05-10T21:12:18.513Z,18.25
2023-05-10T21:14:47.019Z,16.77
2023-05-10T21:17:14.506Z,15.57
2023-05-10T21:19:41.674Z,15.77
2023-05-10T21:22:08.345Z,11.48
2023-05-10T21:24:35.308Z,12.73
2023-05-10T21:27:02.910Z,11.90
2023-05-10T21:29:29.601Z,13.93
2023-05-10T21:31:56.373Z,12.57
2023-05-10T21:34:23.272Z,12.57
2023-05-10T21:36:49.977Z,17.48
2023-05-10T21:39:16.749Z,14.82
2023-05-10T21:41:43.482Z,10.85
2023-05-10T21:44:10.232Z,13.55
2023-05-10T21:46:36.990Z,16.42
2023-05-10T21:49:03.650Z,14.00
2023-05-10T21:51:30.447Z,10.35
2023-05-10T21:53:57.255Z,13.27
2023-05-10T21:56:23.904Z,11.05
2023-05-10T21:58:50.824Z,10.90
2023-05-10T22:01:18.121Z,13.93
2023-05-10T22:03:44.996Z,12.02
2023-05-10T22:06:11.693Z,13.13
2023-05-10T22:08:38.342Z,10.85
2023-05-10T22:11:05.058Z,10.57
2023-05-10T22:13:31.726Z,15.05
2023-05-10T22:15:58.382Z,12.02
2023-05-10T22:18:25.135Z,14.27
2023-05-10T22:20:51.820Z,12.18
2023-05-10T22:23:18.544Z,8.32
2023-05-10T22:25:45.195Z,13.48
2023-05-10T22:28:12.109Z,10.95
2023-05-10T22:30:38.848Z,12.40
2023-05-10T22:33:05.517Z,8.55
2023-05-10T22:35:32.221Z,9.98
2023-05-10T22:37:58.838Z,13.48
2023-05-10T22:40:25.620Z,13.60
2023-05-10T22:42:52.369Z,12.48
2023-05-10T22:45:19.089Z,8.75
2023-05-10T22:47:47.346Z,9.23
2023-05-10T22:50:14.580Z,9.70
2023-05-10T22:52:41.387Z,11.63
2023-05-10T22:55:08.312Z,13.52
2023-05-10T22:57:35.225Z,10.88
2023-05-10T23:00:03.766Z,11.20
2023-05-10T23:02:31.409Z,11.85
2023-05-10T23:04:58.080Z,13.45
2023-05-10T23:07:24.788Z,8.15
2023-05-10T23:09:51.477Z,8.65
2023-05-10T23:12:18.245Z,8.63
2023-05-10T23:14:46.672Z,9.68
2023-05-10T23:17:13.763Z,11.85
2023-05-10T23:19:40.488Z,11.98
2023-05-10T23:22:07.728Z,11.52
2023-05-10T23:24:34.438Z,10.80
2023-05-10T23:27:01.098Z,10.55
2023-05-10T23:29:27.999Z,14.38
2023-05-10T23:31:54.744Z,15.35
2023-05-10T23:34:21.457Z,18.38
2023-05-10T23:36:48.153Z,13.98
2023-05-10T23:39:14.793Z,16.88
2023-05-10T23:41:41.468Z,15.43
2023-05-10T23:44:08.133Z,15.98
2023-05-10T23:46:34.798Z,15.20
2023-05-10T23:49:01.713Z,13.55
2023-05-10T23:54:12.343Z,16.88
2023-05-10T23:56:39.026Z,14.55
2023-05-10T23:59:08.746Z,14.38
